Time,TemperatureF,DewpointF,PressureIn,WindDirection,WindDirectionDegrees,WindSpeedMPH,WindSpeedGustMPH,Humidity,HourlyPrecipIn,Conditions,Clouds,dailyrainin,SolarRadiationWatts/m^2,SoftwareType,DateUTC
2013-04-05 00:13:00,34.0,20.0,-100.00,WNW,295,0.0,3.0,56,0.00,,,0.00,0.000000,,2013-04-05 04:13:00,
2013-04-05 00:23:00,34.0,20.0,-100.00,WNW,295,0.0,3.0,56,0.00,,,0.00,0.000000,,2013-04-05 04:23:00,
2013-04-05 00:33:00,34.0,20.0,-100.00,WNW,295,0.0,3.0,56,0.00,,,0.00,0.000000,,2013-04-05 04:33:00,
2013-04-05 00:42:00,34.0,20.0,-100.00,WNW,295,0.0,3.0,56,0.00,,,0.00,0.000000,,2013-04-05 04:42:00,
2013-04-05 01:13:00,31.0,20.0,-100.00,NNW,345,0.0,4.0,64,0.00,,,0.00,0.000000,,2013-04-05 05:13:00,
2013-04-05 01:22:00,31.0,20.0,-100.00,NNW,345,0.0,4.0,64,0.00,,,0.00,0.000000,,2013-04-05 05:22:00,
2013-04-05 01:32:00,31.0,20.0,-100.00,NNW,345,0.0,4.0,64,0.00,,,0.00,0.000000,,2013-04-05 05:32:00,
2013-04-05 01:42:00,31.0,20.0,-100.00,NNW,345,0.0,4.0,64,0.00,,,0.00,0.000000,,2013-04-05 05:42:00,
2013-04-05 02:12:00,30.0,21.0,-100.00,NE,42,0.0,0.0,69,0.00,,,0.00,0.000000,,2013-04-05 06:12:00,
2013-04-05 02:22:00,30.0,21.0,-100.00,NE,42,0.0,0.0,69,0.00,,,0.00,0.000000,,2013-04-05 06:22:00,
2013-04-05 02:32:00,30.0,21.0,-100.00,NE,42,0.0,0.0,69,0.00,,,0.00,0.000000,,2013-04-05 06:32:00,
2013-04-05 02:42:00,30.0,21.0,-100.00,NE,42,0.0,0.0,69,0.00,,,0.00,0.000000,,2013-04-05 06:42:00,
2013-04-05 03:12:00,29.0,21.0,-100.00,ENE,63,0.0,0.0,73,0.00,,,0.00,0.000000,,2013-04-05 07:12:00,
2013-04-05 03:22:00,29.0,21.0,-100.00,ENE,63,0.0,0.0,73,0.00,,,0.00,0.000000,,2013-04-05 07:22:00,
2013-04-05 03:32:00,29.0,21.0,-100.00,ENE,63,0.0,0.0,73,0.00,,,0.00,0.000000,,2013-04-05 07:32:00,
2013-04-05 03:42:00,29.0,21.0,-100.00,ENE,63,0.0,0.0,73,0.00,,,0.00,0.000000,,2013-04-05 07:42:00,
2013-04-05 04:13:00,28.0,23.0,-100.00,NNE,32,0.0,1.0,80,0.00,,,0.00,0.000000,,2013-04-05 08:13:00,
2013-04-05 04:23:00,28.0,23.0,-100.00,NNE,32,0.0,1.0,80,0.00,,,0.00,0.000000,,2013-04-05 08:23:00,
2013-04-05 04:33:00,28.0,23.0,-100.00,NNE,32,0.0,1.0,80,0.00,,,0.00,0.000000,,2013-04-05 08:33:00,
2013-04-05 04:43:00,28.0,23.0,-100.00,NNE,32,0.0,1.0,80,0.00,,,0.00,0.000000,,2013-04-05 08:43:00,
2013-04-05 05:12:00,27.0,23.0,-100.00,WNW,287,0.0,0.0,83,0.00,,,0.00,0.000000,,2013-04-05 09:12:00,
2013-04-05 05:22:00,27.0,23.0,-100.00,WNW,287,0.0,0.0,83,0.00,,,0.00,0.000000,,2013-04-05 09:22:00,
2013-04-05 05:33:00,27.0,23.0,-100.00,WNW,287,0.0,0.0,83,0.00,,,0.00,0.000000,,2013-04-05 09:33:00,
2013-04-05 05:43:00,27.0,23.0,-100.00,WNW,287,0.0,0.0,83,0.00,,,0.00,0.000000,,2013-04-05 09:43:00,
2013-04-05 06:13:00,27.0,22.0,-100.00,NW,314,0.0,0.0,81,0.00,,,0.00,0.000000,,2013-04-05 10:13:00,
2013-04-05 06:23:00,27.0,22.0,-100.00,NW,314,0.0,0.0,81,0.00,,,0.00,0.000000,,2013-04-05 10:23:00,
2013-04-05 06:33:00,27.0,22.0,-100.00,NW,314,0.0,0.0,81,0.00,,,0.00,0.000000,,2013-04-05 10:33:00,
2013-04-05 06:43:00,27.0,22.0,-100.00,NW,314,0.0,0.0,81,0.00,,,0.00,0.000000,,2013-04-05 10:43:00,
2013-04-05 07:13:00,26.0,21.0,-100.00,WSW,241,0.0,0.0,82,0.00,,,0.00,0.000000,,2013-04-05 11:13:00,
2013-04-05 07:22:00,26.0,21.0,-100.00,WSW,241,0.0,0.0,82,0.00,,,0.00,0.000000,,2013-04-05 11:22:00,
2013-04-05 07:33:00,26.0,21.0,-100.00,WSW,241,0.0,0.0,82,0.00,,,0.00,0.000000,,2013-04-05 11:33:00,
2013-04-05 07:42:00,26.0,21.0,-100.00,WSW,241,0.0,0.0,82,0.00,,,0.00,0.000000,,2013-04-05 11:42:00,
2013-04-05 08:12:00,26.0,21.0,-100.00,West,272,0.0,0.0,81,0.00,,,0.00,9.000000,,2013-04-05 12:12:00,
2013-04-05 08:22:00,26.0,21.0,-100.00,West,272,0.0,0.0,81,0.00,,,0.00,9.000000,,2013-04-05 12:22:00,
2013-04-05 08:32:00,26.0,21.0,-100.00,West,272,0.0,0.0,81,0.00,,,0.00,9.000000,,2013-04-05 12:32:00,
2013-04-05 08:42:00,26.0,21.0,-100.00,West,272,0.0,0.0,81,0.00,,,0.00,9.000000,,2013-04-05 12:42:00,
2013-04-05 09:12:00,37.0,32.0,-100.00,SW,219,1.0,6.0,82,0.00,,,0.00,141.000000,,2013-04-05 13:12:00,
2013-04-05 09:23:00,37.0,32.0,-100.00,SW,219,1.0,6.0,82,0.00,,,0.00,141.000000,,2013-04-05 13:23:00,
2013-04-05 09:32:00,37.0,32.0,-100.00,SW,219,1.0,6.0,82,0.00,,,0.00,141.000000,,2013-04-05 13:32:00,
2013-04-05 09:42:00,37.0,32.0,-100.00,SW,219,1.0,6.0,82,0.00,,,0.00,141.000000,,2013-04-05 13:42:00,
2013-04-05 10:12:00,50.0,23.0,-100.00,West,263,6.0,9.0,35,0.00,,,0.00,366.000000,,2013-04-05 14:12:00,
2013-04-05 10:23:00,50.0,23.0,-100.00,West,263,6.0,9.0,35,0.00,,,0.00,366.000000,,2013-04-05 14:23:00,
2013-04-05 10:37:00,50.0,23.0,-100.00,West,263,6.0,9.0,35,0.00,,,0.00,366.000000,,2013-04-05 14:37:00,
2013-04-05 10:43:00,50.0,23.0,-100.00,West,263,6.0,9.0,35,0.00,,,0.00,366.000000,,2013-04-05 14:43:00,
2013-04-05 11:13:00,54.0,22.0,-100.00,West,280,4.0,12.0,28,0.00,,,0.00,603.000000,,2013-04-05 15:13:00,
2013-04-05 11:23:00,54.0,22.0,-100.00,West,280,4.0,12.0,28,0.00,,,0.00,603.000000,,2013-04-05 15:23:00,
2013-04-05 11:33:00,54.0,22.0,-100.00,West,280,4.0,12.0,28,0.00,,,0.00,603.000000,,2013-04-05 15:33:00,
2013-04-05 11:43:00,54.0,22.0,-100.00,West,280,4.0,12.0,28,0.00,,,0.00,603.000000,,2013-04-05 15:43:00,
2013-04-05 12:14:00,59.0,23.0,-100.00,North,357,8.0,14.0,25,0.00,,,0.00,796.000000,,2013-04-05 16:14:00,
2013-04-05 12:23:00,59.0,23.0,-100.00,North,357,8.0,14.0,25,0.00,,,0.00,796.000000,,2013-04-05 16:23:00,
2013-04-05 12:33:00,59.0,23.0,-100.00,North,357,8.0,14.0,25,0.00,,,0.00,796.000000,,2013-04-05 16:33:00,
2013-04-05 12:42:00,59.0,23.0,-100.00,North,357,8.0,14.0,25,0.00,,,0.00,796.000000,,2013-04-05 16:42:00,
2013-04-05 13:13:00,61.0,32.0,-100.00,West,267,11.0,19.0,33,0.00,,,0.00,932.000000,,2013-04-05 17:13:00,
2013-04-05 13:23:00,61.0,32.0,-100.00,West,267,11.0,19.0,33,0.00,,,0.00,932.000000,,2013-04-05 17:23:00,
2013-04-05 13:33:00,61.0,32.0,-100.00,West,267,11.0,19.0,33,0.00,,,0.00,932.000000,,2013-04-05 17:33:00,
2013-04-05 13:45:00,61.0,32.0,-100.00,West,267,11.0,19.0,33,0.00,,,0.00,932.000000,,2013-04-05 17:45:00,
2013-04-05 14:13:00,62.0,33.0,-100.00,NNW,331,9.0,18.0,33,0.00,,,0.00,1004.000000,,2013-04-05 18:13:00,
2013-04-05 14:23:00,62.0,33.0,-100.00,NNW,331,9.0,18.0,33,0.00,,,0.00,1004.000000,,2013-04-05 18:23:00,
2013-04-05 14:34:00,62.0,33.0,-100.00,NNW,331,9.0,18.0,33,0.00,,,0.00,1004.000000,,2013-04-05 18:34:00,
2013-04-05 14:43:00,62.0,33.0,-100.00,NNW,331,9.0,18.0,33,0.00,,,0.00,1004.000000,,2013-04-05 18:43:00,
2013-04-05 15:14:00,63.0,29.0,-100.00,NNW,344,8.0,17.0,28,0.00,,,0.00,994.000000,,2013-04-05 19:14:00,
2013-04-05 15:23:00,63.0,29.0,-100.00,NNW,344,8.0,17.0,28,0.00,,,0.00,994.000000,,2013-04-05 19:23:00,
2013-04-05 15:33:00,63.0,29.0,-100.00,NNW,344,8.0,17.0,28,0.00,,,0.00,994.000000,,2013-04-05 19:33:00,
2013-04-05 15:42:00,63.0,29.0,-100.00,NNW,344,8.0,17.0,28,0.00,,,0.00,994.000000,,2013-04-05 19:42:00,
2013-04-05 16:11:00,63.0,21.0,-100.00,North,11,9.0,20.0,20,0.00,,,0.00,897.000000,,2013-04-05 20:11:00,
2013-04-05 16:22:00,63.0,21.0,-100.00,North,11,9.0,20.0,20,0.00,,,0.00,897.000000,,2013-04-05 20:22:00,
2013-04-05 16:33:00,63.0,21.0,-100.00,North,11,9.0,20.0,20,0.00,,,0.00,897.000000,,2013-04-05 20:33:00,
2013-04-05 16:42:00,63.0,21.0,-100.00,North,11,9.0,20.0,20,0.00,,,0.00,897.000000,,2013-04-05 20:42:00,
2013-04-05 17:13:00,62.0,20.0,-100.00,NW,314,8.0,16.0,20,0.00,,,0.00,717.000000,,2013-04-05 21:13:00,
2013-04-05 17:24:00,62.0,20.0,-100.00,NW,314,8.0,16.0,20,0.00,,,0.00,717.000000,,2013-04-05 21:24:00,
2013-04-05 17:34:00,62.0,20.0,-100.00,NW,314,8.0,16.0,20,0.00,,,0.00,717.000000,,2013-04-05 21:34:00,
2013-04-05 17:44:00,62.0,20.0,-100.00,NW,314,8.0,16.0,20,0.00,,,0.00,717.000000,,2013-04-05 21:44:00,
2013-04-05 18:13:00,60.0,21.0,-100.00,NNE,16,7.0,15.0,22,0.00,,,0.00,552.000000,,2013-04-05 22:13:00,
2013-04-05 18:23:00,60.0,21.0,-100.00,NNE,16,7.0,15.0,22,0.00,,,0.00,552.000000,,2013-04-05 22:23:00,
2013-04-05 18:33:00,60.0,21.0,-100.00,NNE,16,7.0,15.0,22,0.00,,,0.00,552.000000,,2013-04-05 22:33:00,
2013-04-05 18:43:00,60.0,21.0,-100.00,NNE,16,7.0,15.0,22,0.00,,,0.00,552.000000,,2013-04-05 22:43:00,
2013-04-05 19:13:00,60.0,22.0,-100.00,NNE,23,6.0,13.0,23,0.00,,,0.00,365.000000,,2013-04-05 23:13:00,
2013-04-05 19:23:00,60.0,22.0,-100.00,NNE,23,6.0,13.0,23,0.00,,,0.00,365.000000,,2013-04-05 23:23:00,
2013-04-05 19:33:00,60.0,22.0,-100.00,NNE,23,6.0,13.0,23,0.00,,,0.00,365.000000,,2013-04-05 23:33:00,
2013-04-05 19:42:00,60.0,22.0,-100.00,NNE,23,6.0,13.0,23,0.00,,,0.00,365.000000,,2013-04-05 23:42:00,
2013-04-05 20:13:00,55.0,23.0,-100.00,NNE,24,4.0,12.0,29,0.00,,,0.00,134.000000,,2013-04-06 00:13:00,
2013-04-05 20:23:00,55.0,23.0,-100.00,NNE,24,4.0,12.0,29,0.00,,,0.00,134.000000,,2013-04-06 00:23:00,
2013-04-05 20:33:00,55.0,23.0,-100.00,NNE,24,4.0,12.0,29,0.00,,,0.00,134.000000,,2013-04-06 00:33:00,
2013-04-05 20:42:00,55.0,23.0,-100.00,NNE,24,4.0,12.0,29,0.00,,,0.00,134.000000,,2013-04-06 00:42:00,
2013-04-05 21:13:00,52.0,24.0,-100.00,North,357,4.0,7.0,33,0.00,,,0.00,8.000000,,2013-04-06 01:13:00,
2013-04-05 21:23:00,52.0,24.0,-100.00,North,357,4.0,7.0,33,0.00,,,0.00,8.000000,,2013-04-06 01:23:00,
2013-04-05 21:33:00,52.0,24.0,-100.00,North,357,4.0,7.0,33,0.00,,,0.00,8.000000,,2013-04-06 01:33:00,
2013-04-05 21:43:00,52.0,24.0,-100.00,North,357,4.0,7.0,33,0.00,,,0.00,8.000000,,2013-04-06 01:43:00,
2013-04-05 22:12:00,46.0,27.0,-100.00,NNE,32,5.0,7.0,48,0.00,,,0.00,0.000000,,2013-04-06 02:12:00,
2013-04-05 22:23:00,46.0,27.0,-100.00,NNE,32,5.0,7.0,48,0.00,,,0.00,0.000000,,2013-04-06 02:23:00,
2013-04-05 22:33:00,46.0,27.0,-100.00,NNE,32,5.0,7.0,48,0.00,,,0.00,0.000000,,2013-04-06 02:33:00,
2013-04-05 22:42:00,46.0,27.0,-100.00,NNE,32,5.0,7.0,48,0.00,,,0.00,0.000000,,2013-04-06 02:42:00,
2013-04-05 23:13:00,45.0,27.0,-100.00,NE,43,1.0,8.0,48,0.00,,,0.00,0.000000,,2013-04-06 03:13:00,
2013-04-05 23:23:00,45.0,27.0,-100.00,NE,43,1.0,8.0,48,0.00,,,0.00,0.000000,,2013-04-06 03:23:00,
2013-04-05 23:34:00,45.0,27.0,-100.00,NE,43,1.0,8.0,48,0.00,,,0.00,0.000000,,2013-04-06 03:34:00,
2013-04-05 23:43:00,45.0,27.0,-100.00,NE,43,1.0,8.0,48,0.00,,,0.00,0.000000,,2013-04-06 03:43:00,